sensor_id;sensor_type;location;lat;lon;timestamp;P1;durP1;ratioP1;P2;durP2;ratioP2
51692;SDS011;37777;53.066;21.638;2023-04-23T00:00:04;42.33;;;12.20;;
51692;SDS011;37777;53.066;21.638;2023-04-23T00:07:07;33.28;;;12.02;;
51692;SDS011;37777;53.066;21.638;2023-04-23T00:14:09;24.45;;;9.00;;
51692;SDS011;37777;53.066;21.638;2023-04-23T00:21:12;24.95;;;8.93;;
51692;SDS011;37777;53.066;21.638;2023-04-23T00:28:13;17.75;;;7.90;;
51692;SDS011;37777;53.066;21.638;2023-04-23T00:35:15;16.58;;;7.57;;
51692;SDS011;37777;53.066;21.638;2023-04-23T00:42:18;24.80;;;9.68;;
51692;SDS011;37777;53.066;21.638;2023-04-23T00:49:20;39.42;;;11.93;;
51692;SDS011;37777;53.066;21.638;2023-04-23T00:56:23;31.70;;;10.65;;
51692;SDS011;37777;53.066;21.638;2023-04-23T01:03:26;35.50;;;11.18;;
51692;SDS011;37777;53.066;21.638;2023-04-23T01:10:28;30.70;;;9.85;;
51692;SDS011;37777;53.066;21.638;2023-04-23T01:17:30;25.25;;;8.55;;
51692;SDS011;37777;53.066;21.638;2023-04-23T01:24:32;19.63;;;7.55;;
51692;SDS011;37777;53.066;21.638;2023-04-23T01:31:34;12.30;;;6.65;;
51692;SDS011;37777;53.066;21.638;2023-04-23T01:38:37;23.77;;;8.35;;
51692;SDS011;37777;53.066;21.638;2023-04-23T01:45:39;24.98;;;8.75;;
51692;SDS011;37777;53.066;21.638;2023-04-23T01:52:41;60.15;;;14.32;;
51692;SDS011;37777;53.066;21.638;2023-04-23T01:59:45;62.55;;;15.77;;
51692;SDS011;37777;53.066;21.638;2023-04-23T02:06:48;306.85;;;45.25;;
51692;SDS011;37777;53.066;21.638;2023-04-23T02:13:50;251.32;;;42.60;;
51692;SDS011;37777;53.066;21.638;2023-04-23T02:20:52;189.05;;;38.40;;
51692;SDS011;37777;53.066;21.638;2023-04-23T02:27:54;31.75;;;12.88;;
51692;SDS011;37777;53.066;21.638;2023-04-23T02:34:57;37.15;;;10.68;;
51692;SDS011;37777;53.066;21.638;2023-04-23T02:42:00;38.08;;;12.57;;
51692;SDS011;37777;53.066;21.638;2023-04-23T02:49:02;65.88;;;18.88;;
51692;SDS011;37777;53.066;21.638;2023-04-23T02:56:05;73.13;;;19.23;;
51692;SDS011;37777;53.066;21.638;2023-04-23T03:03:08;43.47;;;15.02;;
51692;SDS011;37777;53.066;21.638;2023-04-23T03:10:13;74.40;;;20.25;;
51692;SDS011;37777;53.066;21.638;2023-04-23T03:17:14;42.67;;;12.52;;
51692;SDS011;37777;53.066;21.638;2023-04-23T03:24:16;29.00;;;10.52;;
51692;SDS011;37777;53.066;21.638;2023-04-23T03:31:18;65.72;;;16.05;;
51692;SDS011;37777;53.066;21.638;2023-04-23T03:38:20;67.03;;;17.65;;
51692;SDS011;37777;53.066;21.638;2023-04-23T03:45:22;44.92;;;13.40;;
51692;SDS011;37777;53.066;21.638;2023-04-23T03:52:24;29.90;;;11.10;;
51692;SDS011;37777;53.066;21.638;2023-04-23T03:59:26;19.65;;;9.95;;
51692;SDS011;37777;53.066;21.638;2023-04-23T04:06:28;15.95;;;8.75;;
51692;SDS011;37777;53.066;21.638;2023-04-23T04:13:29;17.40;;;8.80;;
51692;SDS011;37777;53.066;21.638;2023-04-23T04:20:31;15.38;;;8.20;;
51692;SDS011;37777;53.066;21.638;2023-04-23T04:27:33;15.80;;;8.82;;
51692;SDS011;37777;53.066;21.638;2023-04-23T04:34:35;32.92;;;12.73;;
51692;SDS011;37777;53.066;21.638;2023-04-23T04:41:39;18.38;;;9.75;;
51692;SDS011;37777;53.066;21.638;2023-04-23T04:48:41;16.20;;;9.70;;
51692;SDS011;37777;53.066;21.638;2023-04-23T04:55:43;22.40;;;10.63;;
51692;SDS011;37777;53.066;21.638;2023-04-23T05:02:46;21.35;;;10.40;;
51692;SDS011;37777;53.066;21.638;2023-04-23T05:09:48;18.45;;;9.43;;
51692;SDS011;37777;53.066;21.638;2023-04-23T05:16:49;17.25;;;9.60;;
51692;SDS011;37777;53.066;21.638;2023-04-23T05:23:52;17.02;;;9.65;;
51692;SDS011;37777;53.066;21.638;2023-04-23T05:30:55;16.25;;;8.95;;
51692;SDS011;37777;53.066;21.638;2023-04-23T05:37:57;16.55;;;8.30;;
51692;SDS011;37777;53.066;21.638;2023-04-23T05:44:58;16.10;;;8.15;;
51692;SDS011;37777;53.066;21.638;2023-04-23T05:52:00;16.27;;;8.80;;
51692;SDS011;37777;53.066;21.638;2023-04-23T05:59:03;13.52;;;7.68;;
51692;SDS011;37777;53.066;21.638;2023-04-23T06:06:05;15.23;;;8.63;;
51692;SDS011;37777;53.066;21.638;2023-04-23T06:13:07;13.63;;;7.97;;
51692;SDS011;37777;53.066;21.638;2023-04-23T06:20:11;17.23;;;7.88;;
51692;SDS011;37777;53.066;21.638;2023-04-23T06:27:13;17.67;;;7.60;;
51692;SDS011;37777;53.066;21.638;2023-04-23T06:34:15;17.00;;;7.70;;
51692;SDS011;37777;53.066;21.638;2023-04-23T06:41:17;14.73;;;7.53;;
51692;SDS011;37777;53.066;21.638;2023-04-23T06:48:18;11.65;;;6.65;;
51692;SDS011;37777;53.066;21.638;2023-04-23T06:55:22;12.63;;;7.18;;
51692;SDS011;37777;53.066;21.638;2023-04-23T07:02:30;10.93;;;6.47;;
51692;SDS011;37777;53.066;21.638;2023-04-23T07:09:32;11.75;;;6.40;;
51692;SDS011;37777;53.066;21.638;2023-04-23T07:16:34;14.05;;;5.72;;
51692;SDS011;37777;53.066;21.638;2023-04-23T07:23:36;10.80;;;5.70;;
51692;SDS011;37777;53.066;21.638;2023-04-23T07:30:38;7.03;;;5.40;;
51692;SDS011;37777;53.066;21.638;2023-04-23T07:37:40;7.88;;;4.63;;
51692;SDS011;37777;53.066;21.638;2023-04-23T07:44:42;6.10;;;4.60;;
51692;SDS011;37777;53.066;21.638;2023-04-23T07:51:44;6.03;;;4.53;;
51692;SDS011;37777;53.066;21.638;2023-04-23T07:58:46;9.25;;;4.90;;
51692;SDS011;37777;53.066;21.638;2023-04-23T08:05:47;10.52;;;4.65;;
51692;SDS011;37777;53.066;21.638;2023-04-23T08:12:49;6.75;;;4.53;;
51692;SDS011;37777;53.066;21.638;2023-04-23T08:19:51;6.60;;;4.82;;
51692;SDS011;37777;53.066;21.638;2023-04-23T08:26:53;8.43;;;4.07;;
51692;SDS011;37777;53.066;21.638;2023-04-23T08:33:56;5.65;;;4.10;;
51692;SDS011;37777;53.066;21.638;2023-04-23T08:40:58;6.32;;;3.83;;
51692;SDS011;37777;53.066;21.638;2023-04-23T08:48:00;5.20;;;3.40;;
51692;SDS011;37777;53.066;21.638;2023-04-23T08:55:03;9.43;;;3.70;;
51692;SDS011;37777;53.066;21.638;2023-04-23T09:02:07;6.70;;;3.38;;
51692;SDS011;37777;53.066;21.638;2023-04-23T09:09:12;5.20;;;3.30;;
51692;SDS011;37777;53.066;21.638;2023-04-23T09:16:16;4.88;;;3.58;;
51692;SDS011;37777;53.066;21.638;2023-04-23T09:23:19;4.88;;;3.33;;
51692;SDS011;37777;53.066;21.638;2023-04-23T09:30:21;5.70;;;3.47;;
51692;SDS011;37777;53.066;21.638;2023-04-23T09:37:25;4.57;;;3.08;;
51692;SDS011;37777;53.066;21.638;2023-04-23T09:44:30;9.57;;;3.25;;
51692;SDS011;37777;53.066;21.638;2023-04-23T09:51:34;5.00;;;3.35;;
51692;SDS011;37777;53.066;21.638;2023-04-23T09:58:36;6.32;;;3.05;;
51692;SDS011;37777;53.066;21.638;2023-04-23T10:05:39;5.15;;;3.25;;
51692;SDS011;37777;53.066;21.638;2023-04-23T10:12:45;3.83;;;2.85;;
51692;SDS011;37777;53.066;21.638;2023-04-23T10:19:56;4.15;;;2.80;;
51692;SDS011;37777;53.066;21.638;2023-04-23T10:26:59;3.70;;;2.95;;
51692;SDS011;37777;53.066;21.638;2023-04-23T10:34:04;8.05;;;3.25;;
51692;SDS011;37777;53.066;21.638;2023-04-23T10:41:07;5.20;;;2.80;;
51692;SDS011;37777;53.066;21.638;2023-04-23T10:48:09;5.18;;;2.95;;
51692;SDS011;37777;53.066;21.638;2023-04-23T10:55:15;6.80;;;3.25;;
51692;SDS011;37777;53.066;21.638;2023-04-23T11:02:17;4.75;;;3.00;;
51692;SDS011;37777;53.066;21.638;2023-04-23T11:16:58;4.93;;;3.13;;
51692;SDS011;37777;53.066;21.638;2023-04-23T11:24:00;5.93;;;2.97;;
51692;SDS011;37777;53.066;21.638;2023-04-23T11:31:02;5.53;;;3.38;;
51692;SDS011;37777;53.066;21.638;2023-04-23T11:38:07;7.43;;;3.03;;
51692;SDS011;37777;53.066;21.638;2023-04-23T11:45:18;3.88;;;2.80;;
51692;SDS011;37777;53.066;21.638;2023-04-23T11:52:21;4.22;;;2.95;;
51692;SDS011;37777;53.066;21.638;2023-04-23T11:59:23;4.53;;;3.20;;
51692;SDS011;37777;53.066;21.638;2023-04-23T12:06:24;5.60;;;2.88;;
51692;SDS011;37777;53.066;21.638;2023-04-23T12:13:29;6.93;;;2.83;;
51692;SDS011;37777;53.066;21.638;2023-04-23T12:20:31;3.25;;;2.67;;
51692;SDS011;37777;53.066;21.638;2023-04-23T12:27:37;4.55;;;2.80;;
51692;SDS011;37777;53.066;21.638;2023-04-23T12:34:54;4.70;;;2.70;;
51692;SDS011;37777;53.066;21.638;2023-04-23T12:48:58;3.50;;;2.38;;
51692;SDS011;37777;53.066;21.638;2023-04-23T12:56:00;3.50;;;2.47;;
51692;SDS011;37777;53.066;21.638;2023-04-23T13:03:02;3.22;;;2.60;;
51692;SDS011;37777;53.066;21.638;2023-04-23T13:10:04;4.20;;;2.40;;
51692;SDS011;37777;53.066;21.638;2023-04-23T13:17:06;7.60;;;2.70;;
51692;SDS011;37777;53.066;21.638;2023-04-23T13:24:08;2.72;;;2.40;;
51692;SDS011;37777;53.066;21.638;2023-04-23T13:31:10;2.40;;;2.20;;
51692;SDS011;37777;53.066;21.638;2023-04-23T13:38:13;4.53;;;2.38;;
51692;SDS011;37777;53.066;21.638;2023-04-23T13:45:15;6.68;;;2.30;;
51692;SDS011;37777;53.066;21.638;2023-04-23T13:52:17;3.22;;;2.55;;
51692;SDS011;37777;53.066;21.638;2023-04-23T13:59:19;2.85;;;2.13;;
51692;SDS011;37777;53.066;21.638;2023-04-23T14:06:21;3.97;;;2.45;;
51692;SDS011;37777;53.066;21.638;2023-04-23T14:13:23;5.45;;;2.15;;
51692;SDS011;37777;53.066;21.638;2023-04-23T14:20:25;5.53;;;2.28;;
51692;SDS011;37777;53.066;21.638;2023-04-23T14:27:30;2.80;;;2.47;;
51692;SDS011;37777;53.066;21.638;2023-04-23T14:34:32;3.72;;;2.42;;
51692;SDS011;37777;53.066;21.638;2023-04-23T14:41:37;3.28;;;2.30;;
51692;SDS011;37777;53.066;21.638;2023-04-23T14:48:40;2.60;;;2.20;;
51692;SDS011;37777;53.066;21.638;2023-04-23T14:55:43;5.72;;;2.63;;
51692;SDS011;37777;53.066;21.638;2023-04-23T15:02:45;3.58;;;2.47;;
51692;SDS011;37777;53.066;21.638;2023-04-23T15:09:47;4.40;;;2.35;;
51692;SDS011;37777;53.066;21.638;2023-04-23T15:16:50;3.63;;;2.33;;
51692;SDS011;37777;53.066;21.638;2023-04-23T15:23:52;2.63;;;2.40;;
51692;SDS011;37777;53.066;21.638;2023-04-23T15:30:57;2.50;;;2.10;;
51692;SDS011;37777;53.066;21.638;2023-04-23T15:37:58;5.25;;;2.50;;
51692;SDS011;37777;53.066;21.638;2023-04-23T15:45:01;4.65;;;2.72;;
51692;SDS011;37777;53.066;21.638;2023-04-23T15:52:03;2.80;;;2.47;;
51692;SDS011;37777;53.066;21.638;2023-04-23T15:59:06;3.13;;;2.70;;
51692;SDS011;37777;53.066;21.638;2023-04-23T16:06:08;3.08;;;2.42;;
51692;SDS011;37777;53.066;21.638;2023-04-23T16:13:11;5.57;;;2.60;;
51692;SDS011;37777;53.066;21.638;2023-04-23T16:20:13;4.80;;;2.75;;
51692;SDS011;37777;53.066;21.638;2023-04-23T16:27:16;3.17;;;2.80;;
51692;SDS011;37777;53.066;21.638;2023-04-23T16:34:18;3.65;;;2.38;;
51692;SDS011;37777;53.066;21.638;2023-04-23T16:41:22;3.55;;;2.78;;
51692;SDS011;37777;53.066;21.638;2023-04-23T16:48:24;3.22;;;2.58;;
51692;SDS011;37777;53.066;21.638;2023-04-23T16:55:26;5.95;;;2.92;;
51692;SDS011;37777;53.066;21.638;2023-04-23T17:02:29;5.93;;;2.60;;
51692;SDS011;37777;53.066;21.638;2023-04-23T17:09:31;4.60;;;2.63;;
51692;SDS011;37777;53.066;21.638;2023-04-23T17:16:33;4.63;;;3.05;;
51692;SDS011;37777;53.066;21.638;2023-04-23T17:23:36;5.13;;;3.08;;
51692;SDS011;37777;53.066;21.638;2023-04-23T17:30:44;4.90;;;2.97;;
51692;SDS011;37777;53.066;21.638;2023-04-23T17:37:46;5.13;;;2.75;;
51692;SDS011;37777;53.066;21.638;2023-04-23T17:44:49;3.58;;;2.83;;
51692;SDS011;37777;53.066;21.638;2023-04-23T17:51:54;4.32;;;3.13;;
51692;SDS011;37777;53.066;21.638;2023-04-23T17:58:57;6.72;;;3.88;;
51692;SDS011;37777;53.066;21.638;2023-04-23T18:06:00;6.90;;;4.10;;
51692;SDS011;37777;53.066;21.638;2023-04-23T18:13:03;15.88;;;4.53;;
51692;SDS011;37777;53.066;21.638;2023-04-23T18:20:07;9.05;;;4.75;;
51692;SDS011;37777;53.066;21.638;2023-04-23T18:27:13;13.88;;;5.63;;
51692;SDS011;37777;53.066;21.638;2023-04-23T18:34:19;8.25;;;4.65;;
51692;SDS011;37777;53.066;21.638;2023-04-23T18:41:23;6.63;;;4.50;;
51692;SDS011;37777;53.066;21.638;2023-04-23T18:55:33;8.63;;;4.63;;
51692;SDS011;37777;53.066;21.638;2023-04-23T19:02:35;8.90;;;4.32;;
51692;SDS011;37777;53.066;21.638;2023-04-23T19:09:41;6.28;;;4.05;;
51692;SDS011;37777;53.066;21.638;2023-04-23T19:16:44;7.28;;;4.25;;
51692;SDS011;37777;53.066;21.638;2023-04-23T19:23:47;6.05;;;3.90;;
51692;SDS011;37777;53.066;21.638;2023-04-23T19:30:51;5.05;;;3.72;;
51692;SDS011;37777;53.066;21.638;2023-04-23T19:37:54;7.97;;;3.70;;
51692;SDS011;37777;53.066;21.638;2023-04-23T19:44:57;4.78;;;3.80;;
51692;SDS011;37777;53.066;21.638;2023-04-23T19:52:00;5.82;;;3.47;;
51692;SDS011;37777;53.066;21.638;2023-04-23T19:59:04;9.10;;;4.07;;
51692;SDS011;37777;53.066;21.638;2023-04-23T20:06:11;6.07;;;3.90;;
51692;SDS011;37777;53.066;21.638;2023-04-23T20:13:13;5.15;;;3.78;;
51692;SDS011;37777;53.066;21.638;2023-04-23T20:20:15;5.80;;;4.15;;
51692;SDS011;37777;53.066;21.638;2023-04-23T20:27:17;8.95;;;3.90;;
51692;SDS011;37777;53.066;21.638;2023-04-23T20:34:19;5.13;;;4.13;;
51692;SDS011;37777;53.066;21.638;2023-04-23T20:41:21;6.10;;;3.97;;
51692;SDS011;37777;53.066;21.638;2023-04-23T20:48:23;6.22;;;4.20;;
51692;SDS011;37777;53.066;21.638;2023-04-23T20:55:26;7.30;;;4.20;;
51692;SDS011;37777;53.066;21.638;2023-04-23T21:02:28;13.48;;;4.68;;
51692;SDS011;37777;53.066;21.638;2023-04-23T21:09:30;7.70;;;4.82;;
51692;SDS011;37777;53.066;21.638;2023-04-23T21:16:32;5.75;;;4.47;;
51692;SDS011;37777;53.066;21.638;2023-04-23T21:23:34;6.38;;;4.45;;
51692;SDS011;37777;53.066;21.638;2023-04-23T21:37:41;7.13;;;4.43;;
51692;SDS011;37777;53.066;21.638;2023-04-23T21:44:42;5.53;;;4.50;;
51692;SDS011;37777;53.066;21.638;2023-04-23T21:51:44;6.65;;;4.70;;
51692;SDS011;37777;53.066;21.638;2023-04-23T21:58:46;7.38;;;4.63;;
51692;SDS011;37777;53.066;21.638;2023-04-23T22:05:48;6.43;;;4.68;;
51692;SDS011;37777;53.066;21.638;2023-04-23T22:12:50;9.02;;;4.90;;
51692;SDS011;37777;53.066;21.638;2023-04-23T22:19:52;5.72;;;4.50;;
51692;SDS011;37777;53.066;21.638;2023-04-23T22:26:54;8.18;;;5.00;;
51692;SDS011;37777;53.066;21.638;2023-04-23T22:33:56;6.10;;;4.47;;
51692;SDS011;37777;53.066;21.638;2023-04-23T22:40:58;7.97;;;5.20;;
51692;SDS011;37777;53.066;21.638;2023-04-23T22:48:00;11.82;;;4.90;;
51692;SDS011;37777;53.066;21.638;2023-04-23T22:55:02;8.55;;;5.35;;
51692;SDS011;37777;53.066;21.638;2023-04-23T23:02:04;11.95;;;5.15;;
51692;SDS011;37777;53.066;21.638;2023-04-23T23:09:06;9.57;;;5.40;;
51692;SDS011;37777;53.066;21.638;2023-04-23T23:16:08;7.97;;;5.45;;
51692;SDS011;37777;53.066;21.638;2023-04-23T23:23:10;9.10;;;5.28;;
51692;SDS011;37777;53.066;21.638;2023-04-23T23:30:12;14.70;;;5.95;;
51692;SDS011;37777;53.066;21.638;2023-04-23T23:37:14;11.73;;;6.18;;
51692;SDS011;37777;53.066;21.638;2023-04-23T23:44:17;11.98;;;6.05;;
51692;SDS011;37777;53.066;21.638;2023-04-23T23:51:18;10.07;;;6.63;;
51692;SDS011;37777;53.066;21.638;2023-04-23T23:58:20;12.00;;;6.00;;
